Time;durP1;ratioP1;P1;durP2;ratioP2;P2;SDS_P1;SDS_P2;PMS_P1;PMS_P2;Temp;Humidity;BMP_temperature;BMP_pressure;BME280_temperature;BME280_humidity;BME280_pressure;Samples;Min_cycle;Max_cycle;Signal;HPM_P1;HPM_P2
2022/06/29 00:00:53;;;;;;;;;2.00;2.00;;;;;;;;4881365;29;45416;-69
2022/06/29 00:03:18;;;;;;;;;2.33;2.33;;;;;;;;4891931;29;45255;-69
2022/06/29 00:05:43;;;;;;;;;1.67;1.67;;;;;;;;4881526;29;45149;-69
2022/06/29 00:08:09;;;;;;;;;2.33;2.33;;;;;;;;4894493;29;45642;-69
2022/06/29 00:10:35;;;;;;;;;2.00;1.67;;;;;;;;4880325;29;45221;-69
2022/06/29 00:13:00;;;;;;;;;4.00;2.00;;;;;;;;4884051;29;45205;-69
2022/06/29 00:15:25;;;;;;;;;4.00;3.00;;;;;;;;4875697;29;45490;-69
2022/06/29 00:17:51;;;;;;;;;2.67;2.67;;;;;;;;4882236;29;46181;-68
2022/06/29 00:20:16;;;;;;;;;3.00;1.33;;;;;;;;4877184;29;45434;-69
2022/06/29 00:22:42;;;;;;;;;2.00;1.67;;;;;;;;4884650;29;45333;-69
2022/06/29 00:25:08;;;;;;;;;2.33;2.33;;;;;;;;4883851;29;47315;-69
2022/06/29 00:27:33;;;;;;;;;3.00;3.00;;;;;;;;4885246;29;47697;-69
2022/06/29 00:29:58;;;;;;;;;3.33;2.67;;;;;;;;4882125;29;45522;-69
2022/06/29 00:32:24;;;;;;;;;2.67;2.00;;;;;;;;4893774;29;45237;-69
2022/06/29 00:34:49;;;;;;;;;2.00;1.00;;;;;;;;4881143;29;45877;-69
2022/06/29 00:37:14;;;;;;;;;3.00;3.00;;;;;;;;4894388;29;46876;-69
2022/06/29 00:39:40;;;;;;;;;2.67;2.67;;;;;;;;4886935;29;45261;-69
2022/06/29 00:42:05;;;;;;;;;2.67;2.33;;;;;;;;4895240;29;45296;-69
2022/06/29 00:44:30;;;;;;;;;1.67;1.67;;;;;;;;4882266;29;45388;-68
2022/06/29 00:47:05;;;;;;;;;1.00;1.00;;;;;;;;4880831;29;46538;-69
2022/06/29 00:49:31;;;;;;;;;3.33;1.00;;;;;;;;4879994;29;45448;-69
2022/06/29 00:52:04;;;;;;;;;2.00;2.00;;;;;;;;4885767;29;45457;-69
2022/06/29 00:54:31;;;;;;;;;2.67;2.67;;;;;;;;4881739;29;46301;-69
2022/06/29 00:56:58;;;;;;;;;3.00;3.00;;;;;;;;4889450;29;46706;-69
2022/06/29 00:59:24;;;;;;;;;4.67;2.00;;;;;;;;4884524;28;45285;-69
2022/06/29 01:01:49;;;;;;;;;2.00;2.00;;;;;;;;4888985;29;45298;-68
2022/06/29 01:04:14;;;;;;;;;3.00;3.00;;;;;;;;4885623;29;45463;-69
2022/06/29 01:06:40;;;;;;;;;2.00;2.00;;;;;;;;4890249;29;46605;-69
2022/06/29 01:09:05;;;;;;;;;4.67;2.33;;;;;;;;4886959;28;45260;-68
2022/06/29 01:11:31;;;;;;;;;2.67;1.67;;;;;;;;4892700;29;45922;-68
2022/06/29 01:13:57;;;;;;;;;2.33;2.00;;;;;;;;4889466;28;46661;-69
2022/06/29 01:16:22;;;;;;;;;2.67;2.67;;;;;;;;4890373;29;46285;-69
2022/06/29 01:18:47;;;;;;;;;3.00;1.00;;;;;;;;4881646;29;45415;-68
2022/06/29 01:21:13;;;;;;;;;2.33;2.33;;;;;;;;4881651;29;45442;-68
2022/06/29 01:23:38;;;;;;;;;3.67;2.67;;;;;;;;4884818;29;45515;-68
2022/06/29 01:26:04;;;;;;;;;3.00;2.67;;;;;;;;4890701;29;46107;-69
2022/06/29 01:28:30;;;;;;;;;2.33;2.33;;;;;;;;4887256;28;45397;-69
2022/06/29 01:30:55;;;;;;;;;3.67;2.67;;;;;;;;4884562;29;45432;-69
2022/06/29 01:33:20;;;;;;;;;2.67;2.67;;;;;;;;4889681;29;46359;-69
2022/06/29 01:35:45;;;;;;;;;2.00;2.00;;;;;;;;4882255;29;45333;-69
2022/06/29 01:38:11;;;;;;;;;4.00;3.00;;;;;;;;4895376;28;45419;-69
2022/06/29 01:40:37;;;;;;;;;5.33;3.00;;;;;;;;4885831;29;45418;-69
2022/06/29 01:43:03;;;;;;;;;3.00;3.00;;;;;;;;4897413;29;46167;-69
2022/06/29 01:45:28;;;;;;;;;3.33;3.00;;;;;;;;4876568;29;46588;-69
2022/06/29 01:47:53;;;;;;;;;4.00;3.33;;;;;;;;4887249;28;45301;-69
2022/06/29 01:50:18;;;;;;;;;4.33;3.00;;;;;;;;4880843;29;45215;-69
2022/06/29 01:52:44;;;;;;;;;4.00;3.00;;;;;;;;4899329;29;46192;-69
2022/06/29 01:55:09;;;;;;;;;3.00;3.00;;;;;;;;4886981;29;46589;-69
2022/06/29 01:57:34;;;;;;;;;2.00;2.00;;;;;;;;4893693;29;45343;-69
2022/06/29 01:59:59;;;;;;;;;3.67;3.00;;;;;;;;4889110;28;45391;-69
2022/06/29 02:02:25;;;;;;;;;3.67;2.67;;;;;;;;4890515;29;45322;-69
2022/06/29 02:04:50;;;;;;;;;2.67;2.67;;;;;;;;4885173;29;46847;-69
2022/06/29 02:07:15;;;;;;;;;3.00;3.00;;;;;;;;4894117;28;45141;-69
2022/06/29 02:09:40;;;;;;;;;4.00;3.00;;;;;;;;4885013;28;45418;-69
2022/06/29 02:12:06;;;;;;;;;2.33;2.33;;;;;;;;4894856;28;45233;-69
2022/06/29 02:14:31;;;;;;;;;2.67;2.00;;;;;;;;4884099;28;45451;-69
2022/06/29 02:16:56;;;;;;;;;3.67;2.67;;;;;;;;4895964;28;45377;-69
2022/06/29 02:19:21;;;;;;;;;3.00;1.67;;;;;;;;4886711;28;45415;-69
2022/06/29 02:21:46;;;;;;;;;3.00;3.00;;;;;;;;4884865;29;46553;-69
2022/06/29 02:24:12;;;;;;;;;4.00;4.00;;;;;;;;4881417;29;45534;-69
2022/06/29 02:26:37;;;;;;;;;3.67;3.00;;;;;;;;4894396;29;45389;-69
2022/06/29 02:29:02;;;;;;;;;4.00;3.00;;;;;;;;4883018;29;45228;-69
2022/06/29 02:36:57;;;;;;;;;2.67;2.67;;;;;;;;4889170;29;45272;-69
2022/06/29 02:39:22;;;;;;;;;3.00;3.00;;;;;;;;4887582;29;45380;-69
2022/06/29 02:41:47;;;;;;;;;5.33;4.00;;;;;;;;4891844;29;45245;-68
2022/06/29 02:44:12;;;;;;;;;5.00;4.00;;;;;;;;4892078;29;45708;-69
2022/06/29 02:46:38;;;;;;;;;6.00;2.67;;;;;;;;4893035;29;45382;-69
2022/06/29 02:49:03;;;;;;;;;5.33;3.00;;;;;;;;4894949;29;45469;-69
2022/06/29 02:51:28;;;;;;;;;6.67;4.00;;;;;;;;4895628;29;45508;-69
2022/06/29 02:53:53;;;;;;;;;4.00;4.00;;;;;;;;4880974;29;46568;-69
2022/06/29 02:56:18;;;;;;;;;5.00;5.00;;;;;;;;4888393;29;45467;-69
2022/06/29 02:58:44;;;;;;;;;3.33;2.00;;;;;;;;4885744;29;45681;-69
2022/06/29 03:01:09;;;;;;;;;3.00;3.00;;;;;;;;4887165;28;45590;-68
2022/06/29 03:03:34;;;;;;;;;4.00;4.00;;;;;;;;4887047;29;46234;-68
2022/06/29 03:05:59;;;;;;;;;5.67;4.00;;;;;;;;4882950;29;45232;-68
2022/06/29 03:08:24;;;;;;;;;4.67;3.00;;;;;;;;4890541;29;45421;-68
2022/06/29 03:10:50;;;;;;;;;5.33;4.00;;;;;;;;4882194;29;45428;-68
2022/06/29 03:13:15;;;;;;;;;5.33;3.67;;;;;;;;4893938;29;45391;-68
2022/06/29 03:15:40;;;;;;;;;3.00;3.00;;;;;;;;4883837;29;45322;-68
2022/06/29 03:18:06;;;;;;;;;3.67;3.67;;;;;;;;4897234;29;45422;-68
2022/06/29 03:20:31;;;;;;;;;4.00;2.00;;;;;;;;4889750;29;47283;-68
2022/06/29 03:22:57;;;;;;;;;4.00;4.00;;;;;;;;4882225;29;46425;-68
2022/06/29 03:25:22;;;;;;;;;3.00;3.00;;;;;;;;4877431;29;45430;-68
2022/06/29 03:27:47;;;;;;;;;4.00;3.00;;;;;;;;4886802;29;45406;-68
2022/06/29 03:30:12;;;;;;;;;4.00;3.00;;;;;;;;4877506;29;45422;-68
2022/06/29 03:32:38;;;;;;;;;4.33;4.33;;;;;;;;4888476;29;46400;-68
2022/06/29 03:35:03;;;;;;;;;6.67;3.33;;;;;;;;4879075;29;45698;-68
2022/06/29 03:37:28;;;;;;;;;3.67;3.67;;;;;;;;4905310;28;45157;-68
2022/06/29 03:39:54;;;;;;;;;6.00;4.00;;;;;;;;4889058;29;45224;-68
2022/06/29 03:42:19;;;;;;;;;7.67;4.33;;;;;;;;4896026;28;45323;-68
2022/06/29 03:44:44;;;;;;;;;5.33;4.00;;;;;;;;4889918;29;45182;-68
2022/06/29 03:47:09;;;;;;;;;3.00;3.00;;;;;;;;4895372;29;45350;-68
2022/06/29 03:49:37;;;;;;;;;4.00;4.00;;;;;;;;4883438;29;45519;-69
2022/06/29 03:52:03;;;;;;;;;4.00;3.67;;;;;;;;4887080;29;46542;-68
2022/06/29 03:54:28;;;;;;;;;6.67;4.00;;;;;;;;4885353;28;45529;-69
2022/06/29 03:56:53;;;;;;;;;3.67;3.67;;;;;;;;4888136;28;45292;-68
2022/06/29 03:59:19;;;;;;;;;6.00;3.33;;;;;;;;4882531;29;45434;-68
2022/06/29 04:01:46;;;;;;;;;4.00;4.00;;;;;;;;4891062;29;46767;-68
2022/06/29 04:04:11;;;;;;;;;4.00;3.00;;;;;;;;4879230;28;45293;-68
2022/06/29 04:06:36;;;;;;;;;4.67;4.67;;;;;;;;4888949;29;45447;-69
2022/06/29 04:09:02;;;;;;;;;6.33;5.00;;;;;;;;4883054;28;45334;-68
2022/06/29 04:14:11;;;;;;;;;5.00;3.00;;;;;;;;4881661;29;44990;-67
2022/06/29 04:16:37;;;;;;;;;7.00;6.00;;;;;;;;4894858;29;45452;-68
2022/06/29 04:19:03;;;;;;;;;5.67;4.00;;;;;;;;4889337;28;45300;-68
2022/06/29 04:21:28;;;;;;;;;3.33;3.33;;;;;;;;4895453;29;45623;-68
2022/06/29 04:23:53;;;;;;;;;5.67;5.00;;;;;;;;4885755;28;45353;-68
2022/06/29 04:26:19;;;;;;;;;4.33;3.00;;;;;;;;4879139;29;45427;-68
2022/06/29 04:28:44;;;;;;;;;4.67;3.67;;;;;;;;4882248;29;45307;-68
2022/06/29 04:31:09;;;;;;;;;4.00;4.00;;;;;;;;4882140;29;45333;-68
2022/06/29 04:33:34;;;;;;;;;5.33;4.67;;;;;;;;4880021;29;45154;-68
2022/06/29 04:36:01;;;;;;;;;6.67;6.00;;;;;;;;4888248;29;45246;-68
2022/06/29 04:38:26;;;;;;;;;6.00;4.67;;;;;;;;4890429;29;45272;-68
2022/06/29 04:40:51;;;;;;;;;4.00;4.00;;;;;;;;4890879;29;45511;-68
2022/06/29 04:43:16;;;;;;;;;3.00;3.00;;;;;;;;4892980;28;45274;-68
2022/06/29 04:48:25;;;;;;;;;7.67;5.00;;;;;;;;4884016;29;45161;-68
2022/06/29 04:50:51;;;;;;;;;4.00;4.00;;;;;;;;4885178;29;46760;-69
2022/06/29 04:53:16;;;;;;;;;4.33;4.33;;;;;;;;4893034;29;45503;-69
2022/06/29 04:55:41;;;;;;;;;5.00;4.00;;;;;;;;4888543;28;45362;-69
2022/06/29 04:58:06;;;;;;;;;7.00;6.00;;;;;;;;4894891;29;45148;-69
2022/06/29 05:00:31;;;;;;;;;5.33;5.33;;;;;;;;4889226;29;45496;-68
2022/06/29 05:02:57;;;;;;;;;6.00;5.00;;;;;;;;4890497;29;45369;-69
2022/06/29 05:05:22;;;;;;;;;5.00;5.00;;;;;;;;4882478;29;45369;-69
2022/06/29 05:07:47;;;;;;;;;5.00;3.67;;;;;;;;4899341;29;45669;-69
2022/06/29 05:10:12;;;;;;;;;6.00;4.67;;;;;;;;4880963;29;45346;-69
2022/06/29 05:12:38;;;;;;;;;6.33;4.67;;;;;;;;4894744;29;45404;-69
2022/06/29 05:15:04;;;;;;;;;6.00;4.67;;;;;;;;4890940;29;45340;-69
2022/06/29 05:17:36;;;;;;;;;6.67;5.00;;;;;;;;4896074;29;45476;-69
2022/06/29 05:20:01;;;;;;;;;5.00;3.33;;;;;;;;4888130;29;45437;-69
2022/06/29 05:22:26;;;;;;;;;3.00;3.00;;;;;;;;4897915;29;45268;-69
2022/06/29 05:24:52;;;;;;;;;4.00;4.00;;;;;;;;4883718;29;45221;-68
2022/06/29 05:27:17;;;;;;;;;4.67;3.33;;;;;;;;4881667;29;45362;-69
2022/06/29 05:29:42;;;;;;;;;4.00;4.00;;;;;;;;4879997;29;45490;-70
2022/06/29 05:32:09;;;;;;;;;5.00;4.00;;;;;;;;4884374;29;45282;-69
2022/06/29 05:34:34;;;;;;;;;3.00;3.00;;;;;;;;4888320;29;45424;-68
2022/06/29 05:36:59;;;;;;;;;3.00;3.00;;;;;;;;4886860;29;45349;-68
2022/06/29 05:39:24;;;;;;;;;4.33;3.67;;;;;;;;4888985;29;46089;-69
2022/06/29 05:41:50;;;;;;;;;3.00;3.00;;;;;;;;4889379;29;45403;-68
2022/06/29 05:44:15;;;;;;;;;3.00;3.00;;;;;;;;4892170;29;45411;-69
2022/06/29 05:46:40;;;;;;;;;6.00;4.00;;;;;;;;4890874;29;45624;-68
2022/06/29 05:49:05;;;;;;;;;4.00;3.00;;;;;;;;4893954;29;45406;-68
2022/06/29 05:51:31;;;;;;;;;2.67;2.67;;;;;;;;4895099;29;45310;-69
2022/06/29 05:53:56;;;;;;;;;3.00;2.00;;;;;;;;4893821;29;45441;-69
2022/06/29 05:56:22;;;;;;;;;2.67;2.67;;;;;;;;4886898;29;45546;-69
2022/06/29 05:58:48;;;;;;;;;5.00;2.00;;;;;;;;4892281;29;46181;-68
2022/06/29 06:01:14;;;;;;;;;3.00;3.00;;;;;;;;4886943;29;45358;-69
2022/06/29 06:03:39;;;;;;;;;3.00;3.00;;;;;;;;4887883;29;45595;-69
2022/06/29 06:06:04;;;;;;;;;3.33;3.00;;;;;;;;4883886;29;45428;-68
2022/06/29 06:08:30;;;;;;;;;3.00;3.00;;;;;;;;4890557;29;45249;-69
2022/06/29 06:10:55;;;;;;;;;5.33;3.00;;;;;;;;4883279;29;45305;-68
2022/06/29 06:13:21;;;;;;;;;3.67;3.00;;;;;;;;4893821;29;45264;-69
2022/06/29 06:15:46;;;;;;;;;4.67;3.00;;;;;;;;4883749;29;45412;-69
2022/06/29 06:18:11;;;;;;;;;4.33;3.00;;;;;;;;4895959;29;46516;-69
2022/06/29 06:20:37;;;;;;;;;3.00;3.00;;;;;;;;4887396;29;45392;-68
2022/06/29 06:23:02;;;;;;;;;3.00;3.00;;;;;;;;4890704;29;45449;-69
2022/06/29 06:25:27;;;;;;;;;2.00;2.00;;;;;;;;4889998;29;45492;-69
2022/06/29 06:27:52;;;;;;;;;1.33;1.33;;;;;;;;4893451;29;46151;-70
2022/06/29 06:30:17;;;;;;;;;2.00;2.00;;;;;;;;4890151;29;45435;-69
2022/06/29 06:32:43;;;;;;;;;2.67;1.67;;;;;;;;4896360;29;45293;-69
2022/06/29 06:35:08;;;;;;;;;1.67;1.67;;;;;;;;4881692;29;45523;-70
2022/06/29 06:37:34;;;;;;;;;2.67;1.67;;;;;;;;4887679;29;46113;-69
2022/06/29 06:42:43;;;;;;;;;5.00;3.00;;;;;;;;4884919;29;45301;-69
2022/06/29 06:45:08;;;;;;;;;4.00;3.00;;;;;;;;4884636;29;45300;-69
2022/06/29 06:47:33;;;;;;;;;1.67;1.67;;;;;;;;4896383;29;45419;-69
2022/06/29 06:49:58;;;;;;;;;2.33;2.33;;;;;;;;4881260;28;45471;-69
2022/06/29 06:52:24;;;;;;;;;3.00;2.00;;;;;;;;4896342;29;45462;-69
2022/06/29 06:54:49;;;;;;;;;1.00;1.00;;;;;;;;4895519;28;45545;-69
2022/06/29 06:57:14;;;;;;;;;3.67;1.67;;;;;;;;4900720;28;45518;-69
2022/06/29 06:59:39;;;;;;;;;2.00;2.00;;;;;;;;4892199;28;45427;-69
2022/06/29 07:02:05;;;;;;;;;2.33;1.67;;;;;;;;4900859;28;45312;-70
2022/06/29 07:04:31;;;;;;;;;2.33;2.00;;;;;;;;4891441;29;45533;-69
2022/06/29 07:06:56;;;;;;;;;3.00;1.67;;;;;;;;4900670;29;45600;-69
2022/06/29 07:09:21;;;;;;;;;1.00;1.00;;;;;;;;4895398;28;45494;-71
2022/06/29 07:11:46;;;;;;;;;2.00;2.00;;;;;;;;4901430;28;45225;-70
2022/06/29 07:14:12;;;;;;;;;3.00;2.00;;;;;;;;4895792;29;45299;-70
2022/06/29 07:16:37;;;;;;;;;1.00;1.00;;;;;;;;4900637;28;46395;-69
2022/06/29 07:19:02;;;;;;;;;2.00;2.00;;;;;;;;4897102;28;45354;-69
2022/06/29 07:21:27;;;;;;;;;3.33;1.33;;;;;;;;4900605;29;45305;-69
2022/06/29 07:23:53;;;;;;;;;1.00;1.00;;;;;;;;4897482;29;45335;-69
2022/06/29 07:26:18;;;;;;;;;1.75;1.75;;;;;;;;4900682;29;45359;-69
2022/06/29 07:28:43;;;;;;;;;4.00;1.75;;;;;;;;4897585;28;45412;-69
2022/06/29 07:31:08;;;;;;;;;1.25;1.25;;;;;;;;4896637;28;45521;-69
2022/06/29 07:33:34;;;;;;;;;1.00;1.00;;;;;;;;4886287;29;46529;-72
2022/06/29 07:35:59;;;;;;;;;1.50;0.75;;;;;;;;4885266;29;45337;-69
2022/06/29 07:38:24;;;;;;;;;1.00;1.00;;;;;;;;4890180;28;45411;-68
2022/06/29 07:40:50;;;;;;;;;1.25;1.25;;;;;;;;4888837;29;45206;-68
2022/06/29 07:43:15;;;;;;;;;1.00;1.00;;;;;;;;4894833;29;45716;-68
2022/06/29 07:45:40;;;;;;;;;3.00;1.00;;;;;;;;4887958;29;45442;-68
2022/06/29 07:48:05;;;;;;;;;1.00;1.00;;;;;;;;4896841;28;45694;-68
2022/06/29 07:50:31;;;;;;;;;4.00;1.25;;;;;;;;4885878;29;45257;-68
2022/06/29 07:52:56;;;;;;;;;1.00;1.00;;;;;;;;4902191;28;45269;-71
2022/06/29 07:55:22;;;;;;;;;1.00;1.00;;;;;;;;4881633;29;45457;-70
2022/06/29 07:57:47;;;;;;;;;1.75;1.75;;;;;;;;4875914;29;45262;-69
2022/06/29 08:00:12;;;;;;;;;1.00;1.00;;;;;;;;4885716;29;45301;-69
2022/06/29 08:02:38;;;;;;;;;0.25;0.25;;;;;;;;4888016;29;45323;-69
2022/06/29 08:05:03;;;;;;;;;1.00;1.00;;;;;;;;4878632;29;46423;-69
2022/06/29 08:07:28;;;;;;;;;0.25;0.25;;;;;;;;4888813;29;45916;-69
2022/06/29 08:09:54;;;;;;;;;1.75;1.75;;;;;;;;4881794;29;45530;-70
2022/06/29 08:12:19;;;;;;;;;2.00;1.75;;;;;;;;4898118;28;45591;-69
2022/06/29 08:14:45;;;;;;;;;3.00;0.00;;;;;;;;4885695;29;45484;-69
2022/06/29 08:17:10;;;;;;;;;0.00;0.00;;;;;;;;4901337;29;45276;-68
2022/06/29 08:19:35;;;;;;;;;1.75;0.75;;;;;;;;4888767;29;45382;-68
2022/06/29 08:22:00;;;;;;;;;1.00;1.00;;;;;;;;4906735;28;45456;-68
2022/06/29 08:24:27;;;;;;;;;1.00;1.00;;;;;;;;4901016;28;45557;-69
2022/06/29 08:26:52;;;;;;;;;1.20;0.00;;;;;;;;4906183;29;45469;-69
2022/06/29 08:29:17;;;;;;;;;1.00;1.00;;;;;;;;4899300;28;45368;-69
2022/06/29 08:31:43;;;;;;;;;1.75;1.75;;;;;;;;4904237;29;46120;-68
2022/06/29 08:34:09;;;;;;;;;2.00;1.75;;;;;;;;4900969;29;45519;-69
2022/06/29 08:36:34;;;;;;;;;2.80;0.80;;;;;;;;4904791;29;45250;-69
2022/06/29 08:39:01;;;;;;;;;1.00;1.00;;;;;;;;4902063;28;45308;-69
2022/06/29 08:41:27;;;;;;;;;1.40;0.20;;;;;;;;4900102;29;45732;-69
2022/06/29 08:43:53;;;;;;;;;2.00;1.80;;;;;;;;4902493;28;46316;-69
2022/06/29 08:46:18;;;;;;;;;2.00;2.00;;;;;;;;4903084;29;45322;-68
2022/06/29 08:48:44;;;;;;;;;1.25;0.00;;;;;;;;4901590;29;45481;-68
2022/06/29 08:51:10;;;;;;;;;1.00;0.00;;;;;;;;4894175;28;45459;-68
2022/06/29 08:53:36;;;;;;;;;0.20;0.20;;;;;;;;4903356;29;45443;-68
2022/06/29 08:56:03;;;;;;;;;0.40;0.40;;;;;;;;4883023;29;45385;-69
2022/06/29 08:58:28;;;;;;;;;0.20;0.20;;;;;;;;4886762;29;45281;-68
2022/06/29 09:00:54;;;;;;;;;0.75;0.75;;;;;;;;4893118;29;45416;-68
2022/06/29 09:03:20;;;;;;;;;2.00;0.50;;;;;;;;4892614;29;45543;-67
2022/06/29 09:05:47;;;;;;;;;1.80;0.00;;;;;;;;4886400;29;45232;-68
2022/06/29 09:08:12;;;;;;;;;0.60;0.20;;;;;;;;4895163;29;45396;-69
2022/06/29 09:10:37;;;;;;;;;2.75;1.00;;;;;;;;4887389;29;45295;-69
2022/06/29 09:13:04;;;;;;;;;2.50;2.50;;;;;;;;4899511;29;45755;-68
2022/06/29 09:15:33;;;;;;;;;0.40;0.40;;;;;;;;4879990;29;45399;-69
2022/06/29 09:17:59;;;;;;;;;1.60;0.80;;;;;;;;4908632;28;45406;-69
2022/06/29 09:20:36;;;;;;;;;1.80;1.00;;;;;;;;4885513;29;45981;-69
2022/06/29 09:23:02;;;;;;;;;0.20;0.20;;;;;;;;4895773;29;45345;-68
2022/06/29 09:25:29;;;;;;;;;1.25;1.00;;;;;;;;4877651;29;45369;-69
2022/06/29 09:27:55;;;;;;;;;0.20;0.20;;;;;;;;4914296;28;45451;-69
2022/06/29 09:30:27;;;;;;;;;1.00;1.00;;;;;;;;4880997;28;45706;-69
2022/06/29 09:33:00;;;;;;;;;0.20;0.20;;;;;;;;4900524;29;45396;-70
2022/06/29 09:35:25;;;;;;;;;0.20;0.20;;;;;;;;4883390;29;45626;-68
2022/06/29 09:37:51;;;;;;;;;2.25;1.00;;;;;;;;4904055;28;45253;-70
2022/06/29 09:40:16;;;;;;;;;0.75;0.25;;;;;;;;4873427;29;45202;-69
2022/06/29 09:42:41;;;;;;;;;0.00;0.00;;;;;;;;4887019;29;45371;-69
2022/06/29 09:45:06;;;;;;;;;1.00;1.00;;;;;;;;4876498;29;45227;-69
2022/06/29 09:47:33;;;;;;;;;2.00;2.00;;;;;;;;4890397;29;45432;-68
2022/06/29 09:50:00;;;;;;;;;4.00;0.80;;;;;;;;4876642;29;45297;-68
2022/06/29 09:52:25;;;;;;;;;1.40;1.40;;;;;;;;4890260;29;45483;-73
2022/06/29 09:54:51;;;;;;;;;0.25;0.00;;;;;;;;4888169;29;45605;-73
2022/06/29 09:57:19;;;;;;;;;0.00;0.00;;;;;;;;4891569;28;45438;-73
2022/06/29 10:02:45;;;;;;;;;2.00;0.20;;;;;;;;4888681;29;45300;-73
2022/06/29 10:05:12;;;;;;;;;1.40;0.80;;;;;;;;4881326;29;45489;-74
2022/06/29 10:07:40;;;;;;;;;16.60;15.60;;;;;;;;4885488;29;45471;-74
2022/06/29 10:10:07;;;;;;;;;0.20;0.20;;;;;;;;4876662;29;46947;-74
2022/06/29 10:16:03;;;;;;;;;0.40;0.40;;;;;;;;4879873;29;45427;-72
2022/06/29 10:18:35;;;;;;;;;0.00;0.00;;;;;;;;4899354;28;45377;-72
2022/06/29 10:21:00;;;;;;;;;0.40;0.40;;;;;;;;4880000;29;45372;-73
2022/06/29 10:23:47;;;;;;;;;1.25;0.50;;;;;;;;4890898;28;45731;-72
2022/06/29 10:26:35;;;;;;;;;1.40;1.00;;;;;;;;4887637;29;45320;-73
2022/06/29 10:29:06;;;;;;;;;4.00;1.20;;;;;;;;4884180;29;45865;-73
2022/06/29 10:32:00;;;;;;;;;1.80;0.20;;;;;;;;4884495;29;45440;-73
2022/06/29 10:34:31;;;;;;;;;0.00;0.00;;;;;;;;4889256;29;45475;-73
2022/06/29 10:37:02;;;;;;;;;0.20;0.20;;;;;;;;4895083;29;46244;-73
2022/06/29 10:39:48;;;;;;;;;1.40;0.20;;;;;;;;4891638;28;45442;-74
2022/06/29 10:45:12;;;;;;;;;0.20;0.20;;;;;;;;4875447;29;45707;-73
2022/06/29 10:47:38;;;;;;;;;0.20;0.00;;;;;;;;4884831;29;45158;-72
2022/06/29 10:50:16;;;;;;;;;0.25;0.25;;;;;;;;4875877;29;45343;-72
2022/06/29 10:52:42;;;;;;;;;1.00;1.00;;;;;;;;4887036;29;45552;-74
2022/06/29 10:55:07;;;;;;;;;0.00;0.00;;;;;;;;4886719;29;45283;-72
2022/06/29 10:57:36;;;;;;;;;59.25;47.75;;;;;;;;4890877;29;45442;-73
2022/06/29 11:00:08;;;;;;;;;3.20;2.00;;;;;;;;4889233;29;45920;-73
2022/06/29 11:02:34;;;;;;;;;0.40;0.40;;;;;;;;4887625;29;46332;-73
2022/06/29 11:04:59;;;;;;;;;1.25;1.25;;;;;;;;4888532;29;45221;-73
2022/06/29 11:12:53;;;;;;;;;0.20;0.20;;;;;;;;4885268;29;45420;-73
2022/06/29 11:18:06;;;;;;;;;0.00;0.00;;;;;;;;4893729;29;45428;-73
2022/06/29 11:20:31;;;;;;;;;0.75;0.00;;;;;;;;4888115;29;45464;-73
2022/06/29 11:22:57;;;;;;;;;0.25;0.00;;;;;;;;4893323;29;45513;-71
2022/06/29 11:25:22;;;;;;;;;1.00;0.75;;;;;;;;4890488;28;46252;-72
2022/06/29 11:27:48;;;;;;;;;0.00;0.00;;;;;;;;4896834;29;45244;-72
2022/06/29 11:30:18;;;;;;;;;2.20;1.00;;;;;;;;4879721;28;45489;-69
2022/06/29 11:32:47;;;;;;;;;1.00;0.20;;;;;;;;4898004;29;45369;-68
2022/06/29 11:35:13;;;;;;;;;1.00;0.20;;;;;;;;4880952;29;45559;-68
2022/06/29 11:38:01;;;;;;;;;0.00;0.00;;;;;;;;4892074;29;45305;-68
2022/06/29 11:40:30;;;;;;;;;1.00;0.00;;;;;;;;4891591;29;45473;-68
2022/06/29 11:43:05;;;;;;;;;0.00;0.00;;;;;;;;4896314;28;45326;-69
2022/06/29 11:45:36;;;;;;;;;0.40;0.20;;;;;;;;4877264;29;45648;-69
2022/06/29 11:48:09;;;;;;;;;0.20;0.00;;;;;;;;4891536;29;45432;-69
2022/06/29 11:50:41;;;;;;;;;0.00;0.00;;;;;;;;4880955;29;45378;-69
2022/06/29 11:53:06;;;;;;;;;0.00;0.00;;;;;;;;4893633;29;45296;-70
2022/06/29 11:55:44;;;;;;;;;0.00;0.00;;;;;;;;4882544;29;45385;-69
2022/06/29 11:58:18;;;;;;;;;0.00;0.00;;;;;;;;4894598;29;45311;-69
2022/06/29 12:00:44;;;;;;;;;0.00;0.00;;;;;;;;4872561;29;45301;-69
2022/06/29 12:03:12;;;;;;;;;1.00;1.00;;;;;;;;4879612;29;45535;-70
2022/06/29 12:05:37;;;;;;;;;0.00;0.00;;;;;;;;4882910;29;48257;-69
2022/06/29 12:08:02;;;;;;;;;0.00;0.00;;;;;;;;4898089;28;45999;-69
2022/06/29 12:10:28;;;;;;;;;0.00;0.00;;;;;;;;4895880;29;45436;-69
2022/06/29 12:12:53;;;;;;;;;0.00;0.00;;;;;;;;4901743;28;45494;-69
2022/06/29 12:15:18;;;;;;;;;1.00;0.00;;;;;;;;4894718;29;46245;-70
2022/06/29 12:17:43;;;;;;;;;0.00;0.00;;;;;;;;4901547;28;45508;-69
2022/06/29 12:20:09;;;;;;;;;0.00;0.00;;;;;;;;4895274;29;45491;-70
2022/06/29 12:22:35;;;;;;;;;0.25;0.25;;;;;;;;4901243;29;45447;-70
2022/06/29 12:25:00;;;;;;;;;0.00;0.00;;;;;;;;4895786;28;45468;-70
2022/06/29 12:27:26;;;;;;;;;0.00;0.00;;;;;;;;4901079;28;45711;-70
2022/06/29 12:29:51;;;;;;;;;0.20;0.00;;;;;;;;4891423;28;45352;-70
2022/06/29 12:32:17;;;;;;;;;0.00;0.00;;;;;;;;4898969;29;46223;-70
2022/06/29 12:34:42;;;;;;;;;0.00;0.00;;;;;;;;4894382;28;45444;-69
2022/06/29 12:37:08;;;;;;;;;0.00;0.00;;;;;;;;4900990;28;45403;-69
2022/06/29 12:39:33;;;;;;;;;0.00;0.00;;;;;;;;4891034;28;45305;-69
2022/06/29 12:41:58;;;;;;;;;0.00;0.00;;;;;;;;4893972;29;46842;-69
2022/06/29 12:44:24;;;;;;;;;0.00;0.00;;;;;;;;4885430;29;46135;-69
2022/06/29 12:46:49;;;;;;;;;0.00;0.00;;;;;;;;4889966;29;45211;-69
2022/06/29 12:49:15;;;;;;;;;1.00;0.00;;;;;;;;4890152;29;45435;-69
2022/06/29 12:51:41;;;;;;;;;0.00;0.00;;;;;;;;4882796;29;46200;-70
2022/06/29 12:54:06;;;;;;;;;0.50;0.50;;;;;;;;4877280;28;47292;-70
2022/06/29 12:56:31;;;;;;;;;0.00;0.00;;;;;;;;4901339;28;45845;-69
2022/06/29 12:58:57;;;;;;;;;0.00;0.00;;;;;;;;4881780;29;45599;-74
2022/06/29 13:01:22;;;;;;;;;0.25;0.25;;;;;;;;4894410;28;46075;-71
2022/06/29 13:03:47;;;;;;;;;0.75;0.25;;;;;;;;4897069;28;47188;-70
2022/06/29 13:06:12;;;;;;;;;0.00;0.00;;;;;;;;4888951;29;45309;-70
2022/06/29 13:08:38;;;;;;;;;0.00;0.00;;;;;;;;4897902;28;45353;-71
2022/06/29 13:11:03;;;;;;;;;0.00;0.00;;;;;;;;4891518;29;45236;-71
2022/06/29 13:13:29;;;;;;;;;0.00;0.00;;;;;;;;4894504;29;45531;-71
2022/06/29 13:15:56;;;;;;;;;0.20;0.20;;;;;;;;4880946;29;45237;-71
2022/06/29 13:18:21;;;;;;;;;0.00;0.00;;;;;;;;4891004;29;45458;-72
2022/06/29 13:20:46;;;;;;;;;0.00;0.00;;;;;;;;4880598;29;45316;-71
2022/06/29 13:23:14;;;;;;;;;0.00;0.00;;;;;;;;4900946;29;45414;-72
2022/06/29 13:25:39;;;;;;;;;0.00;0.00;;;;;;;;4876311;29;45300;-71
2022/06/29 13:28:04;;;;;;;;;0.25;0.00;;;;;;;;4899213;29;45493;-71
2022/06/29 13:30:29;;;;;;;;;0.00;0.00;;;;;;;;4878960;29;45316;-71
2022/06/29 13:32:54;;;;;;;;;0.75;0.75;;;;;;;;4900587;29;45374;-72
2022/06/29 13:35:20;;;;;;;;;0.00;0.00;;;;;;;;4883746;29;45536;-70
2022/06/29 13:37:45;;;;;;;;;0.00;0.00;;;;;;;;4903032;29;45332;-70
2022/06/29 13:40:11;;;;;;;;;0.00;0.00;;;;;;;;4888718;29;45419;-69
2022/06/29 13:42:36;;;;;;;;;0.00;0.00;;;;;;;;4886765;29;46593;-72
2022/06/29 13:45:01;;;;;;;;;3.00;2.00;;;;;;;;4877072;29;45459;-71
2022/06/29 13:47:26;;;;;;;;;0.50;0.50;;;;;;;;4887567;29;45479;-72
2022/06/29 13:49:52;;;;;;;;;0.00;0.00;;;;;;;;4879194;29;45401;-71
2022/06/29 13:52:18;;;;;;;;;0.00;0.00;;;;;;;;4891063;29;46557;-71
2022/06/29 13:54:43;;;;;;;;;1.50;0.00;;;;;;;;4880518;29;45434;-71
2022/06/29 13:57:08;;;;;;;;;2.00;0.75;;;;;;;;4893807;29;45371;-72
2022/06/29 13:59:34;;;;;;;;;0.00;0.00;;;;;;;;4880882;28;45293;-72
2022/06/29 14:02:00;;;;;;;;;0.00;0.00;;;;;;;;4905763;28;46693;-72
2022/06/29 14:04:25;;;;;;;;;2.40;0.80;;;;;;;;4883568;28;45409;-71
2022/06/29 14:06:51;;;;;;;;;0.00;0.00;;;;;;;;4893729;29;45206;-72
2022/06/29 14:09:16;;;;;;;;;0.00;0.00;;;;;;;;4886307;28;45321;-72
2022/06/29 14:11:42;;;;;;;;;0.00;0.00;;;;;;;;4893312;29;47125;-72
2022/06/29 14:14:07;;;;;;;;;2.00;0.00;;;;;;;;4898150;28;45286;-72
2022/06/29 14:16:32;;;;;;;;;0.00;0.00;;;;;;;;4895981;29;45390;-72
2022/06/29 14:18:57;;;;;;;;;1.00;0.00;;;;;;;;4883918;29;45525;-73
2022/06/29 14:21:23;;;;;;;;;0.25;0.25;;;;;;;;4889938;29;45677;-70
2022/06/29 14:23:48;;;;;;;;;0.00;0.00;;;;;;;;4889606;28;45386;-70
2022/06/29 14:26:14;;;;;;;;;1.00;1.00;;;;;;;;4902217;28;45300;-70
2022/06/29 14:28:39;;;;;;;;;0.00;0.00;;;;;;;;4892625;29;46398;-70
2022/06/29 14:31:04;;;;;;;;;1.00;0.25;;;;;;;;4887928;29;45594;-70
2022/06/29 14:33:29;;;;;;;;;1.50;1.25;;;;;;;;4897271;28;45434;-71
2022/06/29 14:35:55;;;;;;;;;1.25;1.25;;;;;;;;4885344;29;45359;-73
2022/06/29 14:38:20;;;;;;;;;0.00;0.00;;;;;;;;4883234;29;45421;-75
2022/06/29 14:40:46;;;;;;;;;0.00;0.00;;;;;;;;4879326;29;45509;-74
2022/06/29 14:43:11;;;;;;;;;1.25;1.25;;;;;;;;4885752;29;45341;-75
2022/06/29 14:45:36;;;;;;;;;0.25;0.25;;;;;;;;4880538;29;45328;-76
2022/06/29 14:48:01;;;;;;;;;0.25;0.25;;;;;;;;4888974;29;45524;-77
2022/06/29 14:50:27;;;;;;;;;0.25;0.25;;;;;;;;4879202;29;45633;-76
2022/06/29 14:52:52;;;;;;;;;0.00;0.00;;;;;;;;4891305;29;45279;-76
2022/06/29 14:55:17;;;;;;;;;1.50;0.00;;;;;;;;4886266;29;45302;-74
2022/06/29 14:57:43;;;;;;;;;0.00;0.00;;;;;;;;4893149;29;45336;-75
2022/06/29 15:00:09;;;;;;;;;0.00;0.00;;;;;;;;4882166;29;45652;-75
2022/06/29 15:02:34;;;;;;;;;0.00;0.00;;;;;;;;4888466;28;45451;-76
2022/06/29 15:04:59;;;;;;;;;1.25;1.25;;;;;;;;4882949;29;45499;-73
2022/06/29 15:07:24;;;;;;;;;0.00;0.00;;;;;;;;4894073;29;46059;-77